createdAt,value
2023-05-01T00:00:43.673Z,5.60
2023-05-01T00:03:19.192Z,5.60
2023-05-01T00:05:48.723Z,5.50
2023-05-01T00:08:17.216Z,5.50
2023-05-01T00:10:46.650Z,5.50
2023-05-01T00:13:15.029Z,5.50
2023-05-01T00:15:43.517Z,5.40
2023-05-01T00:18:11.798Z,5.40
2023-05-01T00:20:41.701Z,5.40
2023-05-01T00:23:09.994Z,5.40
2023-05-01T00:25:38.510Z,5.40
2023-05-01T00:28:07.699Z,5.30
2023-05-01T00:30:36.684Z,5.30
2023-05-01T00:33:04.992Z,5.30
2023-05-01T00:35:35.687Z,5.20
2023-05-01T00:38:05.783Z,5.20
2023-05-01T00:40:34.308Z,5.20
2023-05-01T00:43:02.501Z,5.20
2023-05-01T00:45:31.156Z,5.10
2023-05-01T00:47:59.452Z,5.10
2023-05-01T00:50:28.314Z,5.00
2023-05-01T00:52:57.152Z,5.00
2023-05-01T00:55:27.886Z,5.00
2023-05-01T00:57:57.465Z,4.90
2023-05-01T01:00:26.044Z,4.90
2023-05-01T01:02:54.482Z,4.90
2023-05-01T01:05:27.671Z,4.80
2023-05-01T01:08:05.126Z,4.80
2023-05-01T01:10:42.093Z,4.80
2023-05-01T01:13:19.384Z,4.70
2023-05-01T01:15:54.970Z,4.70
2023-05-01T01:18:32.503Z,4.70
2023-05-01T01:21:09.555Z,4.60
2023-05-01T01:24:14.011Z,4.60
2023-05-01T01:27:20.653Z,4.60
2023-05-01T01:30:02.758Z,4.50
2023-05-01T01:32:55.929Z,4.50
2023-05-01T01:35:28.073Z,4.40
2023-05-01T01:38:02.672Z,4.40
2023-05-01T01:40:38.159Z,4.40
2023-05-01T01:43:09.065Z,4.30
2023-05-01T01:45:41.266Z,4.30
2023-05-01T01:48:12.086Z,4.30
2023-05-01T01:50:43.448Z,4.30
2023-05-01T01:53:15.792Z,4.20
2023-05-01T01:55:46.028Z,4.20
2023-05-01T01:58:16.967Z,4.20
2023-05-01T02:00:46.674Z,4.20
2023-05-01T02:03:16.531Z,4.10
2023-05-01T02:05:48.061Z,4.10
2023-05-01T02:08:18.788Z,4.10
2023-05-01T02:10:49.252Z,4.10
2023-05-01T02:13:19.404Z,4.00
2023-05-01T02:15:49.915Z,4.00
2023-05-01T02:18:19.979Z,4.00
2023-05-01T02:20:50.615Z,3.90
2023-05-01T02:23:19.441Z,3.90
2023-05-01T02:25:49.235Z,3.90
2023-05-01T02:28:24.236Z,3.90
2023-05-01T02:30:52.684Z,3.90
2023-05-01T02:33:21.227Z,3.80
2023-05-01T02:35:50.775Z,3.80
2023-05-01T02:38:19.503Z,3.80
2023-05-01T02:40:53.586Z,3.70
2023-05-01T02:43:24.022Z,3.70
2023-05-01T02:45:54.650Z,3.70
2023-05-01T02:48:28.029Z,3.70
2023-05-01T02:50:58.375Z,3.70
2023-05-01T02:53:27.041Z,3.60
2023-05-01T02:55:55.625Z,3.60
2023-05-01T02:58:24.565Z,3.60
2023-05-01T03:00:52.868Z,3.60
2023-05-01T03:03:21.851Z,3.60
2023-05-01T03:05:50.168Z,3.60
2023-05-01T03:08:20.492Z,3.50
2023-05-01T03:10:50.292Z,3.50
2023-05-01T03:13:18.995Z,3.50
2023-05-01T03:15:47.314Z,3.50
2023-05-01T03:18:15.947Z,3.50
2023-05-01T03:20:53.460Z,3.50
2023-05-01T03:23:23.567Z,3.50
2023-05-01T03:25:52.037Z,3.50
2023-05-01T03:28:21.830Z,3.50
2023-05-01T03:30:51.515Z,3.50
2023-05-01T03:33:20.289Z,3.60
2023-05-01T03:35:49.220Z,3.50
2023-05-01T03:38:17.847Z,3.60
2023-05-01T03:40:47.481Z,3.60
2023-05-01T03:43:16.191Z,3.60
2023-05-01T03:45:44.971Z,3.70
2023-05-01T03:48:14.287Z,3.80
2023-05-01T03:50:42.513Z,3.90
2023-05-01T03:53:11.093Z,4.00
2023-05-01T03:55:40.071Z,4.10
2023-05-01T03:58:10.834Z,4.20
2023-05-01T04:00:39.260Z,4.30
2023-05-01T04:03:07.896Z,4.40
2023-05-01T04:05:36.611Z,4.50
2023-05-01T04:08:05.469Z,4.70
2023-05-01T04:10:33.858Z,4.90
2023-05-01T04:13:02.368Z,5.20
2023-05-01T04:15:32.518Z,5.50
2023-05-01T04:18:01.617Z,5.80
2023-05-01T04:20:29.911Z,6.20
2023-05-01T04:22:58.557Z,6.50
2023-05-01T04:25:27.443Z,6.90
2023-05-01T04:28:01.077Z,7.30
2023-05-01T04:30:30.915Z,7.70
2023-05-01T04:33:01.936Z,8.00
2023-05-01T04:35:30.266Z,8.20
2023-05-01T04:37:58.742Z,8.50
2023-05-01T04:40:26.937Z,8.70
2023-05-01T04:42:55.578Z,8.90
2023-05-01T04:45:24.088Z,9.10
2023-05-01T04:47:52.646Z,9.20
2023-05-01T04:50:22.448Z,9.40
2023-05-01T04:52:51.245Z,9.50
2023-05-01T04:55:19.746Z,9.70
2023-05-01T04:57:48.346Z,9.80
2023-05-01T05:00:19.112Z,10.00
2023-05-01T05:02:47.749Z,10.20
2023-05-01T05:05:16.255Z,10.40
2023-05-01T05:07:46.549Z,10.60
2023-05-01T05:10:15.208Z,10.90
2023-05-01T05:12:43.686Z,11.20
2023-05-01T05:15:12.465Z,11.50
2023-05-01T05:17:41.417Z,11.70
2023-05-01T05:20:10.471Z,11.90
2023-05-01T05:22:39.279Z,12.00
2023-05-01T05:25:09.953Z,12.10
2023-05-01T05:27:39.016Z,12.30
2023-05-01T05:30:08.629Z,12.50
2023-05-01T05:32:37.514Z,12.80
2023-05-01T05:35:07.215Z,13.10
2023-05-01T05:37:35.865Z,13.40
2023-05-01T05:40:04.426Z,13.80
2023-05-01T05:42:34.366Z,14.00
2023-05-01T05:45:02.704Z,14.20
2023-05-01T05:47:31.293Z,14.50
2023-05-01T05:49:59.653Z,14.70
2023-05-01T05:52:28.206Z,14.90
2023-05-01T05:54:56.446Z,15.10
2023-05-01T05:57:25.188Z,15.30
2023-05-01T05:59:55.101Z,15.60
2023-05-01T06:02:24.127Z,15.90
2023-05-01T06:04:52.388Z,16.10
2023-05-01T06:07:22.937Z,16.30
2023-05-01T06:09:51.326Z,16.60
2023-05-01T06:12:19.791Z,16.90
2023-05-01T06:14:48.470Z,17.20
2023-05-01T06:17:18.384Z,17.40
2023-05-01T06:19:46.964Z,17.70
2023-05-01T06:22:15.455Z,17.90
2023-05-01T06:24:43.700Z,18.00
2023-05-01T06:27:12.291Z,18.10
2023-05-01T06:29:40.771Z,18.20
2023-05-01T06:32:09.340Z,18.40
2023-05-01T06:34:39.029Z,18.60
2023-05-01T06:37:07.920Z,18.70
2023-05-01T06:39:36.398Z,18.80
2023-05-01T06:42:05.048Z,18.70
2023-05-01T06:44:33.390Z,18.70
2023-05-01T06:47:02.116Z,18.80
2023-05-01T06:49:30.482Z,19.00
2023-05-01T06:52:00.737Z,19.30
2023-05-01T06:54:29.142Z,19.50
2023-05-01T06:56:57.853Z,19.60
2023-05-01T06:59:26.399Z,19.70
2023-05-01T07:01:54.950Z,19.70
2023-05-01T07:04:23.941Z,19.90
2023-05-01T07:06:52.662Z,20.10
2023-05-01T07:09:22.681Z,20.30
2023-05-01T07:11:51.330Z,20.50
2023-05-01T07:14:19.592Z,20.70
2023-05-01T07:16:48.307Z,20.90
2023-05-01T07:19:16.723Z,21.10
2023-05-01T07:21:45.308Z,21.30
2023-05-01T07:24:13.685Z,21.50
2023-05-01T07:26:43.728Z,21.60
2023-05-01T07:29:13.452Z,21.80
2023-05-01T07:31:42.196Z,22.00
2023-05-01T07:34:13.422Z,22.20
2023-05-01T07:36:42.606Z,22.30
2023-05-01T07:39:10.957Z,22.40
2023-05-01T07:41:39.749Z,22.60
2023-05-01T07:44:09.596Z,22.60
2023-05-01T07:46:38.782Z,22.70
2023-05-01T07:49:07.072Z,22.80
2023-05-01T07:51:36.054Z,22.90
2023-05-01T07:54:05.067Z,23.10
2023-05-01T07:56:34.342Z,23.40
2023-05-01T07:59:02.533Z,23.60
2023-05-01T08:01:34.101Z,23.80
2023-05-01T08:04:02.608Z,23.90
2023-05-01T08:06:32.731Z,23.90
2023-05-01T08:09:01.021Z,24.10
2023-05-01T08:11:29.929Z,24.20
2023-05-01T08:13:58.268Z,24.20
2023-05-01T08:16:27.076Z,24.30
2023-05-01T08:18:56.824Z,24.20
2023-05-01T08:21:26.522Z,24.30
2023-05-01T08:23:56.905Z,24.40
2023-05-01T08:26:25.682Z,24.40
2023-05-01T08:28:54.198Z,24.40
2023-05-01T08:31:25.193Z,24.50
2023-05-01T08:33:53.707Z,24.60
2023-05-01T08:36:23.748Z,24.70
2023-05-01T08:38:52.018Z,24.80
2023-05-01T08:41:23.848Z,24.70
2023-05-01T08:43:52.286Z,24.60
2023-05-01T08:46:30.308Z,24.50
2023-05-01T08:48:59.836Z,24.40
2023-05-01T08:51:32.367Z,24.30
2023-05-01T08:54:03.095Z,24.20
2023-05-01T08:56:33.561Z,24.10
2023-05-01T08:59:05.276Z,24.10
2023-05-01T09:01:35.100Z,24.10
2023-05-01T09:04:18.544Z,24.00
2023-05-01T09:06:48.745Z,23.90
2023-05-01T09:09:17.139Z,23.90
2023-05-01T09:11:46.269Z,23.90
2023-05-01T09:14:14.579Z,24.00
2023-05-01T09:16:43.296Z,23.90
2023-05-01T09:19:11.694Z,23.90
2023-05-01T09:21:41.677Z,23.80
2023-05-01T09:24:11.338Z,23.80
2023-05-01T09:26:42.001Z,23.70
2023-05-01T09:29:10.352Z,23.60
2023-05-01T09:31:38.986Z,23.50
2023-05-01T09:34:08.448Z,23.50
2023-05-01T09:36:37.561Z,23.50
2023-05-01T09:39:06.443Z,23.50
2023-05-01T09:41:36.675Z,23.40
2023-05-01T09:44:05.228Z,23.00
2023-05-01T09:46:43.782Z,22.70
2023-05-01T09:49:12.310Z,22.40
2023-05-01T09:51:41.610Z,22.00
2023-05-01T09:54:19.755Z,21.90
2023-05-01T09:56:51.232Z,21.70
2023-05-01T09:59:21.742Z,21.70
2023-05-01T10:01:50.957Z,21.80
2023-05-01T10:04:30.284Z,21.80
2023-05-01T10:06:59.180Z,21.80
2023-05-01T10:09:32.414Z,21.70
2023-05-01T10:12:02.438Z,21.60
2023-05-01T10:14:33.800Z,21.50
2023-05-01T10:17:02.771Z,21.50
2023-05-01T10:19:31.463Z,21.50
2023-05-01T10:22:00.565Z,21.40
2023-05-01T10:24:28.918Z,21.30
2023-05-01T10:26:58.783Z,21.10
2023-05-01T10:29:31.007Z,21.00
2023-05-01T10:32:00.233Z,20.90
2023-05-01T10:34:29.309Z,20.90
2023-05-01T10:37:02.888Z,20.90
2023-05-01T10:39:32.673Z,20.90
2023-05-01T10:42:11.317Z,20.90
2023-05-01T10:44:42.364Z,20.80
2023-05-01T10:47:45.626Z,20.80
2023-05-01T10:50:16.088Z,20.70
2023-05-01T10:53:19.306Z,20.60
2023-05-01T10:55:49.757Z,20.50
2023-05-01T10:58:59.001Z,20.40
2023-05-01T11:01:33.250Z,20.40
2023-05-01T11:04:04.662Z,20.40
2023-05-01T11:06:33.501Z,20.30
2023-05-01T11:09:02.570Z,20.30
2023-05-01T11:11:51.670Z,20.30
2023-05-01T11:14:20.391Z,20.20
2023-05-01T11:16:50.591Z,20.20
2023-05-01T11:19:50.859Z,20.20
2023-05-01T11:22:19.568Z,20.20
2023-05-01T11:24:48.709Z,20.10
2023-05-01T11:27:18.418Z,20.00
2023-05-01T11:29:48.722Z,20.00
2023-05-01T11:32:26.455Z,20.00
2023-05-01T11:34:55.547Z,20.00
2023-05-01T11:37:42.365Z,19.90
2023-05-01T11:40:22.096Z,19.80
2023-05-01T11:42:51.395Z,19.80
2023-05-01T11:45:20.913Z,19.70
2023-05-01T11:47:51.317Z,19.60
2023-05-01T11:50:21.553Z,19.60
2023-05-01T11:52:53.761Z,19.50
2023-05-01T11:55:31.806Z,19.40
2023-05-01T11:58:00.444Z,19.40
2023-05-01T12:00:30.690Z,19.40
2023-05-01T12:03:02.288Z,19.30
2023-05-01T12:05:32.703Z,19.20
2023-05-01T12:08:12.355Z,19.10
2023-05-01T12:10:43.945Z,19.00
2023-05-01T12:13:14.108Z,18.90
2023-05-01T12:15:45.245Z,18.90
2023-05-01T12:18:15.949Z,18.90
2023-05-01T12:20:47.465Z,18.80
2023-05-01T12:23:17.183Z,18.80
2023-05-01T12:25:46.844Z,18.80
2023-05-01T12:28:16.972Z,18.70
2023-05-01T12:30:46.687Z,18.70
2023-05-01T12:33:18.165Z,18.60
2023-05-01T12:35:48.901Z,18.60
2023-05-01T12:38:18.510Z,18.60
2023-05-01T12:40:55.037Z,18.50
2023-05-01T12:43:30.996Z,18.50
2023-05-01T12:45:59.838Z,18.50
2023-05-01T12:48:29.675Z,18.50
2023-05-01T12:50:58.775Z,18.50
2023-05-01T12:53:28.525Z,18.50
2023-05-01T12:55:59.188Z,18.50
2023-05-01T12:58:37.218Z,18.50
2023-05-01T13:01:23.050Z,18.60
2023-05-01T13:03:52.926Z,18.60
2023-05-01T13:06:21.775Z,18.60
2023-05-01T13:08:51.057Z,18.60
2023-05-01T13:11:19.676Z,18.60
2023-05-01T13:13:48.448Z,18.60
2023-05-01T13:16:18.034Z,18.60
2023-05-01T13:18:48.375Z,18.50
2023-05-01T13:21:21.016Z,18.50
2023-05-01T13:23:57.295Z,18.50
2023-05-01T13:26:31.506Z,18.40
2023-05-01T13:29:02.109Z,18.40
2023-05-01T13:31:31.298Z,18.40
2023-05-01T13:34:00.975Z,18.40
2023-05-01T13:36:34.337Z,18.30
2023-05-01T13:39:03.195Z,18.30
2023-05-01T13:41:31.809Z,18.30
2023-05-01T13:44:00.297Z,18.30
2023-05-01T13:46:30.614Z,18.20
2023-05-01T13:49:08.957Z,18.20
2023-05-01T13:51:43.650Z,18.20
2023-05-01T13:54:12.705Z,18.20
2023-05-01T13:56:42.527Z,18.20
2023-05-01T13:59:11.497Z,18.20
2023-05-01T14:01:45.941Z,18.30
2023-05-01T14:04:18.294Z,18.20
2023-05-01T14:06:49.980Z,18.20
2023-05-01T14:09:19.658Z,18.20
2023-05-01T14:11:49.637Z,18.20
2023-05-01T14:14:19.334Z,18.20
2023-05-01T14:16:52.917Z,18.20
2023-05-01T14:19:21.459Z,18.10
2023-05-01T14:21:51.848Z,18.10
2023-05-01T14:24:20.949Z,18.00
2023-05-01T14:26:50.544Z,18.00
2023-05-01T14:29:24.960Z,18.00
2023-05-01T14:31:55.417Z,18.00
2023-05-01T14:34:24.388Z,18.00
2023-05-01T14:36:56.391Z,18.00
2023-05-01T14:39:24.977Z,18.00
2023-05-01T14:41:54.523Z,18.00
2023-05-01T14:44:26.634Z,18.00
2023-05-01T14:46:56.394Z,18.00
2023-05-01T14:49:26.590Z,18.00
2023-05-01T14:51:56.784Z,17.90
2023-05-01T14:54:25.068Z,17.90
2023-05-01T14:56:54.000Z,18.00
2023-05-01T14:59:24.521Z,18.00
2023-05-01T15:01:53.375Z,18.00
2023-05-01T15:04:22.369Z,17.90
2023-05-01T15:06:51.254Z,17.90
2023-05-01T15:09:21.115Z,17.90
2023-05-01T15:11:49.944Z,17.90
2023-05-01T15:14:18.327Z,17.90
2023-05-01T15:16:47.153Z,17.80
2023-05-01T15:19:15.666Z,17.80
2023-05-01T15:21:44.193Z,17.70
2023-05-01T15:24:12.628Z,17.70
2023-05-01T15:26:42.718Z,17.70
2023-05-01T15:29:10.985Z,17.60
2023-05-01T15:31:39.625Z,17.60
2023-05-01T15:34:08.319Z,17.60
2023-05-01T15:36:39.787Z,17.60
2023-05-01T15:39:11.875Z,17.60
2023-05-01T15:41:42.633Z,17.60
2023-05-01T15:44:11.563Z,17.60
2023-05-01T15:46:40.256Z,17.60
2023-05-01T15:49:09.790Z,17.50
2023-05-01T15:51:38.473Z,17.50
2023-05-01T15:54:06.947Z,17.50
2023-05-01T15:56:37.667Z,17.40
2023-05-01T15:59:08.635Z,17.40
2023-05-01T16:01:37.287Z,17.30
2023-05-01T16:04:05.800Z,17.30
2023-05-01T16:06:36.369Z,17.20
2023-05-01T16:09:05.382Z,17.20
2023-05-01T16:11:34.299Z,17.20
2023-05-01T16:14:02.647Z,17.10
2023-05-01T16:16:34.472Z,17.10
2023-05-01T16:19:02.800Z,17.10
2023-05-01T16:21:31.693Z,17.10
2023-05-01T16:24:02.846Z,17.10
2023-05-01T16:26:31.604Z,17.10
2023-05-01T16:29:01.486Z,17.20
2023-05-01T16:31:35.808Z,17.20
2023-05-01T16:34:06.491Z,17.20
2023-05-01T16:36:36.820Z,17.30
2023-05-01T16:39:05.608Z,17.30
2023-05-01T16:41:43.310Z,17.40
2023-05-01T16:44:11.990Z,17.40
2023-05-01T16:46:43.028Z,17.40
2023-05-01T16:49:13.757Z,17.50
2023-05-01T16:51:42.895Z,17.50
2023-05-01T16:54:11.551Z,17.50
2023-05-01T16:56:40.615Z,17.50
2023-05-01T16:59:09.094Z,17.50
2023-05-01T17:01:37.823Z,17.50
2023-05-01T17:04:08.226Z,17.50
2023-05-01T17:06:37.185Z,17.40
2023-05-01T17:09:06.440Z,17.40
2023-05-01T17:11:35.157Z,17.30
2023-05-01T17:14:03.689Z,17.30
2023-05-01T17:16:33.531Z,17.20
2023-05-01T17:19:05.942Z,17.10
2023-05-01T17:21:35.985Z,17.00
2023-05-01T17:24:04.712Z,17.00
2023-05-01T17:26:33.248Z,16.90
2023-05-01T17:29:03.173Z,16.80
2023-05-01T17:31:32.005Z,16.70
2023-05-01T17:34:00.315Z,16.60
2023-05-01T17:36:29.185Z,16.50
2023-05-01T17:39:00.213Z,16.50
2023-05-01T17:41:29.024Z,16.40
2023-05-01T17:43:57.519Z,16.30
2023-05-01T17:46:26.757Z,16.10
2023-05-01T17:48:55.608Z,16.00
2023-05-01T17:51:24.430Z,15.90
2023-05-01T17:53:53.123Z,15.80
2023-05-01T17:56:23.113Z,15.70
2023-05-01T17:58:51.446Z,15.50
2023-05-01T18:01:20.419Z,15.50
2023-05-01T18:03:49.627Z,15.30
2023-05-01T18:06:18.708Z,15.20
2023-05-01T18:08:48.072Z,15.10
2023-05-01T18:11:16.706Z,15.00
2023-05-01T18:13:48.146Z,14.80
2023-05-01T18:16:17.432Z,14.70
2023-05-01T18:18:47.041Z,14.60
2023-05-01T18:21:15.947Z,14.40
2023-05-01T18:23:45.482Z,14.30
2023-05-01T18:26:15.243Z,14.10
2023-05-01T18:28:43.777Z,14.00
2023-05-01T18:31:27.739Z,13.90
2023-05-01T18:33:56.244Z,13.90
2023-05-01T18:36:24.757Z,13.80
2023-05-01T18:38:53.397Z,13.70
2023-05-01T18:41:22.843Z,13.60
2023-05-01T18:43:54.223Z,13.60
2023-05-01T18:46:25.610Z,13.50
2023-05-01T18:48:53.878Z,13.40
2023-05-01T18:51:22.552Z,13.40
2023-05-01T18:53:50.854Z,13.30
2023-05-01T18:56:19.546Z,13.20
2023-05-01T18:58:48.030Z,13.10
2023-05-01T19:01:16.729Z,13.00
2023-05-01T19:03:46.308Z,12.90
2023-05-01T19:06:14.934Z,12.90
2023-05-01T19:08:43.151Z,12.90
2023-05-01T19:11:11.712Z,12.80
2023-05-01T19:13:40.040Z,12.70
2023-05-01T19:16:08.781Z,12.70
2023-05-01T19:18:38.244Z,12.60
2023-05-01T19:21:08.110Z,12.60
2023-05-01T19:23:37.594Z,12.50
2023-05-01T19:26:07.922Z,12.40
2023-05-01T19:28:38.498Z,12.40
2023-05-01T19:31:07.826Z,12.30
2023-05-01T19:33:36.283Z,12.20
2023-05-01T19:36:05.255Z,12.20
2023-05-01T19:38:34.849Z,12.20
2023-05-01T19:41:03.419Z,12.10
2023-05-01T19:43:31.735Z,12.00
2023-05-01T19:46:00.224Z,11.90
2023-05-01T19:48:28.466Z,11.90
2023-05-01T19:50:56.952Z,11.80
2023-05-01T19:53:25.251Z,11.70
2023-05-01T19:55:55.043Z,11.60
2023-05-01T19:58:23.331Z,11.60
2023-05-01T20:00:51.856Z,11.50
2023-05-01T20:03:20.189Z,11.40
2023-05-01T20:05:48.609Z,11.40
2023-05-01T20:08:16.810Z,11.30
2023-05-01T20:10:45.383Z,11.30
2023-05-01T20:13:15.468Z,11.20
2023-05-01T20:15:44.008Z,11.20
2023-05-01T20:18:13.288Z,11.20
2023-05-01T20:20:41.942Z,11.20
2023-05-01T20:23:11.672Z,11.20
2023-05-01T20:25:40.215Z,11.20
2023-05-01T20:28:09.253Z,11.20
2023-05-01T20:30:40.610Z,11.10
2023-05-01T20:33:09.011Z,11.10
2023-05-01T20:35:37.892Z,11.10
2023-05-01T20:38:06.256Z,11.10
2023-05-01T20:40:35.600Z,11.10
2023-05-01T20:43:03.907Z,11.10
2023-05-01T20:45:32.390Z,11.10
2023-05-01T20:48:02.925Z,11.10
2023-05-01T20:50:31.787Z,11.10
2023-05-01T20:53:00.136Z,11.00
2023-05-01T20:55:30.019Z,11.00
2023-05-01T20:57:58.694Z,11.00
2023-05-01T21:00:27.347Z,11.00
2023-05-01T21:02:58.043Z,10.90
2023-05-01T21:05:28.798Z,10.90
2023-05-01T21:07:58.725Z,10.90
2023-05-01T21:10:27.324Z,10.90
2023-05-01T21:12:56.353Z,10.90
2023-05-01T21:15:25.011Z,10.90
2023-05-01T21:17:53.399Z,10.90
2023-05-01T21:20:32.480Z,10.90
2023-05-01T21:23:01.593Z,10.80
2023-05-01T21:25:32.248Z,10.80
2023-05-01T21:28:02.135Z,10.80
2023-05-01T21:30:33.401Z,10.80
2023-05-01T21:33:02.639Z,10.80
2023-05-01T21:35:32.960Z,10.70
2023-05-01T21:38:01.589Z,10.70
2023-05-01T21:40:30.600Z,10.70
2023-05-01T21:42:58.864Z,10.70
2023-05-01T21:45:28.073Z,10.70
2023-05-01T21:47:56.395Z,10.70
2023-05-01T21:50:25.032Z,10.70
2023-05-01T21:52:54.648Z,10.70
2023-05-01T21:55:26.377Z,10.70
2023-05-01T21:57:54.749Z,10.70
2023-05-01T22:00:23.431Z,10.70
2023-05-01T22:02:52.655Z,10.70
2023-05-01T22:05:23.062Z,10.70
2023-05-01T22:07:52.476Z,10.80
2023-05-01T22:10:22.428Z,10.70
2023-05-01T22:12:50.723Z,10.70
2023-05-01T22:15:19.474Z,10.70
2023-05-01T22:17:47.922Z,10.70
2023-05-01T22:20:16.538Z,10.70
2023-05-01T22:22:44.770Z,10.70
2023-05-01T22:25:13.512Z,10.60
2023-05-01T22:27:43.074Z,10.60
2023-05-01T22:30:12.761Z,10.60
2023-05-01T22:32:40.979Z,10.60
2023-05-01T22:35:10.120Z,10.60
2023-05-01T22:37:38.307Z,10.60
2023-05-01T22:40:08.356Z,10.50
2023-05-01T22:42:36.625Z,10.50
2023-05-01T22:45:08.579Z,10.50
2023-05-01T22:47:36.904Z,10.50
2023-05-01T22:50:05.967Z,10.50
2023-05-01T22:52:34.240Z,10.50
2023-05-01T22:55:02.818Z,10.50
2023-05-01T22:57:31.292Z,10.50
2023-05-01T23:00:00.236Z,10.50
2023-05-01T23:02:30.420Z,10.50
2023-05-01T23:04:59.177Z,10.60
2023-05-01T23:07:27.334Z,10.60
2023-05-01T23:09:57.162Z,10.70
2023-05-01T23:12:25.876Z,10.70
2023-05-01T23:14:56.084Z,10.70
2023-05-01T23:17:24.431Z,10.80
2023-05-01T23:19:54.801Z,10.80
2023-05-01T23:22:23.195Z,10.90
2023-05-01T23:24:51.733Z,11.00
2023-05-01T23:27:22.417Z,11.00
2023-05-01T23:29:55.124Z,11.00
2023-05-01T23:32:28.014Z,11.10
2023-05-01T23:35:15.747Z,11.10
2023-05-01T23:37:44.055Z,11.20
2023-05-01T23:40:12.961Z,11.20
2023-05-01T23:42:41.393Z,11.20
2023-05-01T23:45:10.526Z,11.30
2023-05-01T23:47:39.607Z,11.30
2023-05-01T23:50:10.709Z,11.30
2023-05-01T23:52:38.918Z,11.30
2023-05-01T23:55:07.761Z,11.30
2023-05-01T23:57:36.054Z,11.30
